createdAt,value
2019-05-05T00:01:39.488Z,100376.48
2019-05-05T00:04:36.750Z,100380.87
2019-05-05T00:07:05.960Z,100377.02
2019-05-05T00:09:34.913Z,100375.52
2019-05-05T00:12:21.828Z,100377.57
2019-05-05T00:15:02.302Z,100374.02
2019-05-05T00:17:31.715Z,100373.63
2019-05-05T00:20:00.378Z,100377.48
2019-05-05T00:22:29.061Z,100380.56
2019-05-05T00:24:57.725Z,100378.52
2019-05-05T00:27:26.483Z,100374.69
2019-05-05T00:29:55.181Z,100372.54
2019-05-05T00:32:24.535Z,100377.71
2019-05-05T00:34:55.163Z,100381.70
2019-05-05T00:37:25.675Z,100382.44
2019-05-05T00:39:54.636Z,100386.75
2019-05-05T00:42:24.774Z,100393.78
2019-05-05T00:44:54.898Z,100397.24
2019-05-05T00:47:54.843Z,100396.77
2019-05-05T00:50:25.259Z,100400.84
2019-05-05T00:52:55.098Z,100406.58
2019-05-05T00:55:24.467Z,100408.53
2019-05-05T00:57:54.848Z,100412.52
2019-05-05T01:00:39.202Z,100408.36
2019-05-05T01:03:08.032Z,100407.44
2019-05-05T01:05:44.900Z,100408.09
2019-05-05T01:08:17.209Z,100405.91
2019-05-05T01:10:45.884Z,100408.88
2019-05-05T01:13:15.220Z,100411.61
2019-05-05T01:15:44.843Z,100406.97
2019-05-05T01:18:15.254Z,100409.67
2019-05-05T01:20:44.906Z,100411.38
2019-05-05T01:23:15.012Z,100412.78
2019-05-05T01:25:46.119Z,100416.94
2019-05-05T01:28:14.529Z,100410.68
2019-05-05T01:30:45.429Z,100409.08
2019-05-05T01:33:20.446Z,100407.44
2019-05-05T01:35:49.123Z,100405.79
2019-05-05T01:38:24.860Z,100408.11
2019-05-05T01:41:05.824Z,100412.12
2019-05-05T01:43:34.729Z,100419.94
2019-05-05T01:46:05.027Z,100420.49
2019-05-05T01:48:35.096Z,100421.91
2019-05-05T01:51:05.011Z,100431.79
2019-05-05T01:53:34.969Z,100432.23
2019-05-05T01:56:04.853Z,100432.27
2019-05-05T01:58:34.921Z,100441.02
2019-05-05T02:01:04.990Z,100444.37
2019-05-05T02:03:35.051Z,100437.16
2019-05-05T02:06:05.269Z,100441.26
2019-05-05T02:08:34.903Z,100436.39
2019-05-05T02:11:05.169Z,100436.84
2019-05-05T02:13:34.663Z,100429.47
2019-05-05T02:16:04.596Z,100433.66
2019-05-05T02:18:34.571Z,100435.67
2019-05-05T02:21:06.158Z,100429.39
2019-05-05T02:23:36.101Z,100433.17
2019-05-05T02:26:05.985Z,100431.38
2019-05-05T02:28:45.314Z,100430.65
2019-05-05T02:31:25.519Z,100432.55
2019-05-05T02:33:56.782Z,100434.98
2019-05-05T02:36:25.784Z,100444.63
2019-05-05T02:38:56.701Z,100445.53
2019-05-05T02:41:25.651Z,100448.07
2019-05-05T02:43:56.001Z,100446.84
2019-05-05T02:46:44.755Z,100450.70
2019-05-05T02:49:15.288Z,100444.16
2019-05-05T02:51:45.287Z,100444.36
2019-05-05T02:54:15.326Z,100445.45
2019-05-05T02:56:46.826Z,100447.08
2019-05-05T02:59:26.642Z,100446.66
2019-05-05T03:02:09.129Z,100453.55
2019-05-05T03:04:38.180Z,100455.45
2019-05-05T03:07:09.243Z,100458.86
2019-05-05T03:09:38.863Z,100457.85
2019-05-05T03:12:11.100Z,100461.91
2019-05-05T03:14:42.008Z,100456.99
2019-05-05T03:17:14.298Z,100460.81
2019-05-05T03:19:44.549Z,100458.05
2019-05-05T03:22:14.358Z,100461.46
2019-05-05T03:24:44.640Z,100463.52
2019-05-05T03:27:14.447Z,100464.13
2019-05-05T03:29:44.173Z,100467.93
2019-05-05T03:32:16.024Z,100472.64
2019-05-05T03:34:44.600Z,100477.80
2019-05-05T03:37:14.646Z,100473.45
2019-05-05T03:39:48.416Z,100478.05
2019-05-05T03:42:33.850Z,100466.81
2019-05-05T03:45:28.042Z,100473.66
2019-05-05T03:47:57.412Z,100471.09
2019-05-05T03:50:26.432Z,100477.17
2019-05-05T03:52:55.386Z,100474.94
2019-05-05T03:55:24.496Z,100478.12
2019-05-05T03:57:53.849Z,100479.87
2019-05-05T04:00:43.312Z,100474.52
2019-05-05T04:03:12.098Z,100484.75
2019-05-05T04:05:53.799Z,100486.98
2019-05-05T04:08:23.482Z,100492.05
2019-05-05T04:10:54.474Z,100494.73
2019-05-05T04:13:24.293Z,100489.02
2019-05-05T04:16:10.884Z,100493.44
2019-05-05T04:18:48.679Z,100490.58
2019-05-05T04:21:30.270Z,100497.80
2019-05-05T04:23:47.760Z,100501.20
2019-05-05T04:26:16.461Z,100504.03
2019-05-05T04:28:45.124Z,100504.43
2019-05-05T04:31:13.839Z,100506.45
2019-05-05T04:33:44.460Z,100522.05
2019-05-05T04:36:14.490Z,100516.66
2019-05-05T04:38:43.951Z,100514.59
2019-05-05T04:41:14.064Z,100517.20
2019-05-05T04:43:44.202Z,100521.27
2019-05-05T04:46:14.036Z,100525.73
2019-05-05T04:48:48.815Z,100530.64
2019-05-05T04:51:21.373Z,100531.78
2019-05-05T04:54:27.282Z,100526.26
2019-05-05T04:56:56.070Z,100530.80
2019-05-05T04:59:24.814Z,100531.76
2019-05-05T05:01:56.387Z,100536.97
2019-05-05T05:04:48.624Z,100538.06
2019-05-05T05:07:18.293Z,100538.78
2019-05-05T05:09:46.965Z,100540.81
2019-05-05T05:12:15.654Z,100532.98
2019-05-05T05:14:44.314Z,100539.88
2019-05-05T05:17:19.787Z,100544.31
2019-05-05T05:19:48.671Z,100546.48
2019-05-05T05:22:17.338Z,100541.77
2019-05-05T05:24:46.020Z,100550.89
2019-05-05T05:27:14.688Z,100555.18
2019-05-05T05:29:43.793Z,100566.63
2019-05-05T05:32:12.555Z,100570.69
2019-05-05T05:34:41.221Z,100570.44
2019-05-05T05:37:09.921Z,100576.47
2019-05-05T05:39:47.560Z,100574.28
2019-05-05T05:42:16.244Z,100575.38
2019-05-05T05:44:53.562Z,100584.19
2019-05-05T05:47:29.976Z,100589.27
2019-05-05T05:50:17.683Z,100587.89
2019-05-05T05:52:46.373Z,100595.39
2019-05-05T05:55:15.086Z,100598.81
2019-05-05T05:57:43.982Z,100589.49
2019-05-05T06:00:14.515Z,100593.31
2019-05-05T06:02:43.960Z,100592.68
2019-05-05T06:05:14.782Z,100595.12
2019-05-05T06:07:44.252Z,100602.92
2019-05-05T06:10:23.697Z,100600.90
2019-05-05T06:12:45.021Z,100599.75
2019-05-05T06:15:14.336Z,100598.58
2019-05-05T06:17:43.496Z,100596.86
2019-05-05T06:20:14.405Z,100595.61
2019-05-05T06:22:44.664Z,100602.91
2019-05-05T06:25:15.969Z,100606.95
2019-05-05T06:27:44.564Z,100610.45
2019-05-05T06:30:13.888Z,100620.70
2019-05-05T06:32:43.696Z,100618.50
2019-05-05T06:35:13.853Z,100623.77
2019-05-05T06:37:54.263Z,100626.32
2019-05-05T06:40:31.101Z,100622.92
2019-05-05T06:43:13.967Z,100618.89
2019-05-05T06:45:47.648Z,100622.29
2019-05-05T06:48:16.332Z,100627.34
2019-05-05T06:50:44.989Z,100631.64
2019-05-05T06:53:13.713Z,100630.42
2019-05-05T06:55:44.313Z,100626.89
2019-05-05T06:58:13.651Z,100630.77
2019-05-05T07:00:44.089Z,100622.70
2019-05-05T07:03:13.930Z,100624.19
2019-05-05T07:05:43.688Z,100636.22
2019-05-05T07:08:13.844Z,100642.26
2019-05-05T07:10:44.437Z,100637.05
2019-05-05T07:13:14.030Z,100642.24
2019-05-05T07:15:43.759Z,100644.20
2019-05-05T07:18:14.242Z,100644.91
2019-05-05T07:20:44.078Z,100635.76
2019-05-05T07:23:14.465Z,100641.84
2019-05-05T07:25:45.859Z,100636.86
2019-05-05T07:28:14.677Z,100637.30
2019-05-05T07:30:44.230Z,100640.95
2019-05-05T07:33:14.897Z,100646.83
2019-05-05T07:35:56.763Z,100653.47
2019-05-05T07:38:21.624Z,100649.95
2019-05-05T07:40:50.283Z,100644.26
2019-05-05T07:43:18.972Z,100641.94
2019-05-05T07:45:47.632Z,100639.13
2019-05-05T07:48:16.292Z,100644.08
2019-05-05T07:50:58.150Z,100635.22
2019-05-05T07:53:17.848Z,100637.27
2019-05-05T07:55:45.783Z,100632.29
2019-05-05T07:58:14.433Z,100634.10
2019-05-05T08:00:43.776Z,100632.42
2019-05-05T08:03:14.382Z,100629.36
2019-05-05T08:05:44.198Z,100627.30
2019-05-05T08:08:13.930Z,100627.07
2019-05-05T08:10:43.762Z,100632.53
2019-05-05T08:13:14.077Z,100626.09
2019-05-05T08:15:56.824Z,100617.97
2019-05-05T08:18:27.793Z,100619.80
2019-05-05T08:20:58.958Z,100614.06
2019-05-05T08:23:39.760Z,100619.30
2019-05-05T08:26:14.288Z,100620.63
2019-05-05T08:28:56.450Z,100613.86
2019-05-05T08:31:44.337Z,100615.28
2019-05-05T08:34:14.271Z,100603.57
2019-05-05T08:36:44.648Z,100610.55
2019-05-05T08:39:14.252Z,100612.19
2019-05-05T08:41:45.336Z,100611.78
2019-05-05T08:44:14.256Z,100610.26
2019-05-05T08:46:44.594Z,100608.55
2019-05-05T08:49:13.778Z,100616.37
2019-05-05T08:51:44.275Z,100617.89
2019-05-05T08:54:14.342Z,100618.20
2019-05-05T08:56:44.754Z,100624.56
2019-05-05T08:59:14.272Z,100626.72
2019-05-05T09:01:44.868Z,100628.55
2019-05-05T09:04:14.261Z,100615.12
2019-05-05T09:06:43.712Z,100609.45
2019-05-05T09:09:14.423Z,100611.28
2019-05-05T09:11:43.774Z,100612.76
2019-05-05T09:14:14.837Z,100618.25
2019-05-05T09:16:44.787Z,100620.80
2019-05-05T09:19:17.440Z,100620.70
2019-05-05T09:21:46.184Z,100618.91
2019-05-05T09:24:34.069Z,100616.00
2019-05-05T09:27:20.997Z,100613.16
2019-05-05T09:29:49.700Z,100613.13
2019-05-05T09:32:18.374Z,100626.19
2019-05-05T09:34:47.170Z,100623.89
2019-05-05T09:37:15.830Z,100619.44
2019-05-05T09:39:44.569Z,100623.56
2019-05-05T09:42:14.476Z,100621.25
2019-05-05T09:44:43.892Z,100620.02
2019-05-05T09:47:13.685Z,100623.47
2019-05-05T09:49:44.565Z,100620.05
2019-05-05T09:52:13.950Z,100623.07
2019-05-05T09:54:43.893Z,100617.04
2019-05-05T09:57:14.554Z,100620.20
2019-05-05T09:59:44.125Z,100623.82
2019-05-05T10:02:13.102Z,100636.75
2019-05-05T10:04:43.912Z,100640.19
2019-05-05T10:07:13.707Z,100639.08
2019-05-05T10:09:43.806Z,100652.52
2019-05-05T10:12:12.652Z,100654.75
2019-05-05T10:14:41.300Z,100652.87
2019-05-05T10:17:09.987Z,100650.89
2019-05-05T10:19:38.670Z,100668.27
2019-05-05T10:22:07.374Z,100665.42
2019-05-05T10:24:44.218Z,100660.53
2019-05-05T10:27:12.456Z,100664.14
2019-05-05T10:29:41.116Z,100661.25
2019-05-05T10:32:09.819Z,100658.84
2019-05-05T10:34:38.555Z,100669.40
2019-05-05T10:37:07.293Z,100663.00
2019-05-05T10:39:40.267Z,100660.81
2019-05-05T10:42:08.941Z,100666.75
2019-05-05T10:44:37.601Z,100674.16
2019-05-05T10:47:06.296Z,100666.58
2019-05-05T10:49:34.981Z,100656.95
2019-05-05T10:52:03.953Z,100644.97
2019-05-05T10:54:43.284Z,100655.53
2019-05-05T10:57:04.036Z,100652.36
2019-05-05T10:59:34.345Z,100658.18
2019-05-05T11:02:05.011Z,100650.87
2019-05-05T11:04:34.031Z,100639.90
2019-05-05T11:07:04.176Z,100634.06
2019-05-05T11:09:33.878Z,100634.77
2019-05-05T11:12:02.569Z,100620.21
2019-05-05T11:14:31.224Z,100619.77
2019-05-05T11:17:00.065Z,100618.80
2019-05-05T11:19:28.798Z,100615.34
2019-05-05T11:21:57.486Z,100616.13
2019-05-05T11:24:26.228Z,100619.63
2019-05-05T11:26:54.900Z,100622.17
2019-05-05T11:29:24.166Z,100629.87
2019-05-05T11:31:53.279Z,100630.03
2019-05-05T11:34:25.709Z,100631.00
2019-05-05T11:37:01.112Z,100630.70
2019-05-05T11:39:29.777Z,100625.90
2019-05-05T11:41:58.577Z,100624.28
2019-05-05T11:44:27.245Z,100618.50
2019-05-05T11:46:55.932Z,100620.69
2019-05-05T11:49:24.708Z,100623.98
2019-05-05T11:51:54.225Z,100625.63
2019-05-05T11:54:24.558Z,100626.36
2019-05-05T11:56:54.054Z,100623.58
2019-05-05T11:59:23.817Z,100624.17
2019-05-05T12:01:55.035Z,100626.28
2019-05-05T12:04:23.999Z,100631.98
2019-05-05T12:06:52.850Z,100628.61
2019-05-05T12:09:27.575Z,100619.52
2019-05-05T12:11:56.242Z,100623.11
2019-05-05T12:14:27.449Z,100636.35
2019-05-05T12:16:56.141Z,100632.47
2019-05-05T12:19:24.803Z,100630.63
2019-05-05T12:21:54.807Z,100625.00
2019-05-05T12:24:27.773Z,100636.20
2019-05-05T12:27:18.691Z,100634.00
2019-05-05T12:29:54.588Z,100631.19
2019-05-05T12:32:24.117Z,100624.20
2019-05-05T12:34:53.799Z,100621.70
2019-05-05T12:37:23.680Z,100622.06
2019-05-05T12:39:54.419Z,100624.05
2019-05-05T12:42:24.195Z,100635.91
2019-05-05T12:45:00.985Z,100630.73
2019-05-05T12:47:46.854Z,100628.34
2019-05-05T12:50:15.874Z,100619.64
2019-05-05T12:52:44.540Z,100612.67
2019-05-05T12:55:14.324Z,100609.66
2019-05-05T12:57:43.592Z,100611.35
2019-05-05T13:00:14.609Z,100637.25
2019-05-05T13:02:44.212Z,100629.74
2019-05-05T13:05:14.503Z,100627.50
2019-05-05T13:07:44.159Z,100631.06
2019-05-05T13:10:15.916Z,100629.25
2019-05-05T13:12:44.608Z,100637.00
2019-05-05T13:15:14.353Z,100640.48
2019-05-05T13:17:43.794Z,100639.09
2019-05-05T13:20:34.812Z,100632.16
2019-05-05T13:23:28.576Z,100640.19
2019-05-05T13:26:04.238Z,100637.13
2019-05-05T13:28:34.301Z,100640.81
2019-05-05T13:31:04.700Z,100655.80
2019-05-05T13:33:34.543Z,100655.00
2019-05-05T13:36:04.336Z,100649.80
2019-05-05T13:38:34.305Z,100653.17
2019-05-05T13:41:03.810Z,100666.16
2019-05-05T13:43:34.230Z,100662.45
2019-05-05T13:46:24.561Z,100659.41
2019-05-05T13:48:53.959Z,100662.27
2019-05-05T13:51:24.039Z,100651.27
2019-05-05T13:53:53.960Z,100657.94
2019-05-05T13:56:24.494Z,100666.42
2019-05-05T13:58:53.307Z,100662.66
2019-05-05T14:01:23.748Z,100655.22
2019-05-05T14:03:54.177Z,100654.77
2019-05-05T14:06:24.266Z,100647.59
2019-05-05T14:08:54.087Z,100654.09
2019-05-05T14:11:24.710Z,100645.84
2019-05-05T14:13:53.434Z,100645.06
2019-05-05T14:16:22.126Z,100636.42
2019-05-05T14:18:50.792Z,100636.49
2019-05-05T14:21:19.476Z,100631.00
2019-05-05T14:24:00.607Z,100626.45
2019-05-05T14:26:32.122Z,100615.33
2019-05-05T14:28:59.665Z,100615.09
2019-05-05T14:31:33.812Z,100611.84
2019-05-05T14:34:04.519Z,100612.55
2019-05-05T14:36:48.033Z,100613.42
2019-05-05T14:39:16.763Z,100616.58
2019-05-05T14:41:45.387Z,100623.86
2019-05-05T14:44:14.152Z,100621.82
2019-05-05T14:46:44.571Z,100630.97
2019-05-05T14:49:14.079Z,100628.51
2019-05-05T14:51:44.671Z,100623.34
2019-05-05T14:54:14.847Z,100625.39
2019-05-05T14:56:44.157Z,100622.03
2019-05-05T14:59:14.195Z,100628.59
2019-05-05T15:01:44.747Z,100627.33
2019-05-05T15:04:15.242Z,100634.97
2019-05-05T15:07:05.896Z,100651.77
2019-05-05T15:09:49.742Z,100655.58
2019-05-05T15:12:23.794Z,100660.87
2019-05-05T15:14:54.641Z,100666.11
2019-05-05T15:17:24.648Z,100661.20
2019-05-05T15:19:54.108Z,100655.95
2019-05-05T15:22:24.036Z,100653.87
2019-05-05T15:24:53.659Z,100647.77
2019-05-05T15:27:24.243Z,100647.77
2019-05-05T15:29:54.264Z,100644.23
2019-05-05T15:32:24.028Z,100634.88
2019-05-05T15:34:54.537Z,100628.13
2019-05-05T15:37:23.795Z,100639.22
2019-05-05T15:39:53.635Z,100630.41
2019-05-05T15:42:22.624Z,100632.02
2019-05-05T15:44:51.289Z,100620.50
2019-05-05T15:47:19.947Z,100612.92
2019-05-05T15:49:48.658Z,100608.96
2019-05-05T15:52:20.075Z,100610.59
2019-05-05T15:54:47.788Z,100612.71
2019-05-05T15:57:18.064Z,100614.07
2019-05-05T15:59:47.048Z,100613.95
2019-05-05T16:02:15.711Z,100615.55
2019-05-05T16:04:44.380Z,100603.00
2019-05-05T16:07:13.825Z,100611.09
2019-05-05T16:09:44.384Z,100615.28
2019-05-05T16:12:14.380Z,100613.55
2019-05-05T16:14:54.344Z,100618.62
2019-05-05T16:17:43.868Z,100615.94
2019-05-05T16:20:16.673Z,100623.19
2019-05-05T16:23:16.500Z,100617.62
2019-05-05T16:25:46.642Z,100625.69
2019-05-05T16:28:15.588Z,100626.03
2019-05-05T16:30:44.611Z,100635.98
2019-05-05T16:33:13.800Z,100634.44
2019-05-05T16:35:43.750Z,100630.45
2019-05-05T16:38:14.745Z,100632.54
2019-05-05T16:40:44.443Z,100631.69
2019-05-05T16:43:14.062Z,100635.14
2019-05-05T16:45:44.438Z,100642.12
2019-05-05T16:48:13.225Z,100640.37
2019-05-05T16:50:44.073Z,100624.89
2019-05-05T16:53:31.389Z,100635.41
2019-05-05T16:56:00.164Z,100635.84
2019-05-05T16:58:28.821Z,100638.72
2019-05-05T17:00:57.488Z,100641.18
2019-05-05T17:03:26.181Z,100637.94
2019-05-05T17:05:56.624Z,100639.40
2019-05-05T17:08:25.227Z,100638.31
2019-05-05T17:10:54.008Z,100641.31
2019-05-05T17:13:44.048Z,100638.39
2019-05-05T17:16:21.935Z,100632.79
2019-05-05T17:19:13.922Z,100637.72
2019-05-05T17:22:00.518Z,100637.58
2019-05-05T17:24:29.224Z,100639.12
2019-05-05T17:26:57.973Z,100646.19
2019-05-05T17:29:26.979Z,100654.63
2019-05-05T17:31:55.656Z,100651.70
2019-05-05T17:34:24.807Z,100651.15
2019-05-05T17:36:53.709Z,100653.95
2019-05-05T17:39:23.793Z,100662.31
2019-05-05T17:42:14.677Z,100666.70
2019-05-05T17:44:53.669Z,100664.78
2019-05-05T17:47:27.039Z,100661.50
2019-05-05T17:50:17.783Z,100660.36
2019-05-05T17:53:03.108Z,100668.67
2019-05-05T17:55:40.023Z,100666.58
2019-05-05T17:58:08.717Z,100665.82
2019-05-05T18:00:47.101Z,100665.25
2019-05-05T18:03:15.960Z,100662.05
2019-05-05T18:06:09.743Z,100663.59
2019-05-05T18:08:41.081Z,100663.52
2019-05-05T18:11:16.928Z,100659.47
2019-05-05T18:13:49.625Z,100660.84
2019-05-05T18:16:19.487Z,100664.09
2019-05-05T18:18:48.189Z,100667.64
2019-05-05T18:21:16.848Z,100666.17
2019-05-05T18:23:45.518Z,100674.98
2019-05-05T18:26:14.211Z,100674.79
2019-05-05T18:28:44.804Z,100677.66
2019-05-05T18:31:13.881Z,100675.27
2019-05-05T18:33:42.816Z,100682.47
2019-05-05T18:36:11.485Z,100687.71
2019-05-05T18:38:40.176Z,100686.09
2019-05-05T18:41:20.368Z,100687.29
2019-05-05T18:43:55.236Z,100688.11
2019-05-05T18:46:24.449Z,100694.28
2019-05-05T18:48:54.501Z,100689.62
2019-05-05T18:51:24.137Z,100697.13
2019-05-05T18:53:54.983Z,100702.00
2019-05-05T18:56:23.793Z,100708.28
2019-05-05T18:58:54.250Z,100705.82
2019-05-05T19:01:34.041Z,100703.88
2019-05-05T19:04:34.747Z,100707.14
2019-05-05T19:07:14.503Z,100710.98
2019-05-05T19:09:51.824Z,100712.72
2019-05-05T19:12:13.897Z,100714.94
2019-05-05T19:14:44.224Z,100714.20
2019-05-05T19:17:14.182Z,100715.02
2019-05-05T19:19:46.958Z,100717.33
2019-05-05T19:22:15.825Z,100718.68
2019-05-05T19:24:44.487Z,100722.73
2019-05-05T19:27:14.170Z,100724.29
2019-05-05T19:29:45.981Z,100731.59
2019-05-05T19:32:13.458Z,100735.84
2019-05-05T19:34:43.900Z,100734.02
2019-05-05T19:37:13.967Z,100734.31
2019-05-05T19:39:42.817Z,100739.53
2019-05-05T19:42:11.472Z,100737.95
2019-05-05T19:44:40.134Z,100741.73
2019-05-05T19:47:17.978Z,100744.92
2019-05-05T19:49:58.916Z,100745.78
2019-05-05T19:52:27.591Z,100752.13
2019-05-05T19:54:56.281Z,100750.01
2019-05-05T19:57:24.946Z,100759.02
2019-05-05T19:59:54.273Z,100762.83
2019-05-05T20:02:23.666Z,100764.77
2019-05-05T20:04:53.665Z,100758.20
2019-05-05T20:07:24.666Z,100755.91
2019-05-05T20:09:54.337Z,100761.86
2019-05-05T20:12:23.134Z,100760.59
2019-05-05T20:14:51.787Z,100760.13
2019-05-05T20:17:39.515Z,100763.11
2019-05-05T20:20:09.210Z,100768.86
2019-05-05T20:22:37.875Z,100775.07
2019-05-05T20:25:07.931Z,100769.66
2019-05-05T20:27:36.590Z,100776.52
2019-05-05T20:30:06.569Z,100770.59
2019-05-05T20:32:44.463Z,100773.80
2019-05-05T20:35:24.064Z,100775.20
2019-05-05T20:37:57.803Z,100774.30
2019-05-05T20:40:29.787Z,100775.10
2019-05-05T20:42:58.449Z,100780.69
2019-05-05T20:45:29.325Z,100781.70
2019-05-05T20:47:58.363Z,100780.88
2019-05-05T20:50:27.033Z,100780.78
2019-05-05T20:52:55.719Z,100774.85
2019-05-05T20:55:25.886Z,100779.11
2019-05-05T20:57:54.816Z,100786.56
2019-05-05T21:00:24.695Z,100783.83
2019-05-05T21:02:53.883Z,100782.55
2019-05-05T21:05:24.160Z,100783.02
2019-05-05T21:07:52.970Z,100786.55
2019-05-05T21:10:23.987Z,100786.95
2019-05-05T21:12:54.230Z,100789.54
2019-05-05T21:15:24.487Z,100790.55
2019-05-05T21:17:54.097Z,100783.39
2019-05-05T21:20:24.122Z,100788.88
2019-05-05T21:22:58.366Z,100784.09
2019-05-05T21:25:35.288Z,100785.24
2019-05-05T21:28:04.091Z,100793.45
2019-05-05T21:30:33.688Z,100794.95
2019-05-05T21:33:04.471Z,100798.05
2019-05-05T21:35:34.912Z,100796.44
2019-05-05T21:38:04.719Z,100788.86
2019-05-05T21:40:34.642Z,100796.56
2019-05-05T21:43:04.980Z,100793.90
2019-05-05T21:45:34.665Z,100798.50
2019-05-05T21:48:04.314Z,100798.31
2019-05-05T21:50:38.564Z,100799.45
2019-05-05T21:53:24.505Z,100804.81
2019-05-05T21:56:27.182Z,100800.83
2019-05-05T21:58:56.924Z,100802.91
2019-05-05T22:01:27.877Z,100802.20
2019-05-05T22:03:56.990Z,100804.64
2019-05-05T22:06:25.792Z,100800.17
2019-05-05T22:08:54.448Z,100802.18
2019-05-05T22:11:24.275Z,100802.30
2019-05-05T22:13:54.051Z,100798.61
2019-05-05T22:16:22.947Z,100801.45
2019-05-05T22:18:53.968Z,100801.14
2019-05-05T22:21:28.457Z,100799.59
2019-05-05T22:24:16.778Z,100799.13
2019-05-05T22:26:45.964Z,100794.75
2019-05-05T22:29:16.923Z,100793.84
2019-05-05T22:31:45.333Z,100797.72
2019-05-05T22:34:14.711Z,100803.63
2019-05-05T22:36:44.883Z,100797.23
2019-05-05T22:39:16.520Z,100798.91
2019-05-05T22:41:44.679Z,100800.30
2019-05-05T22:44:14.005Z,100795.40
2019-05-05T22:46:43.005Z,100798.31
2019-05-05T22:49:11.829Z,100788.17
2019-05-05T22:51:40.577Z,100789.27
2019-05-05T22:54:09.605Z,100784.53
2019-05-05T22:56:38.365Z,100784.27
2019-05-05T22:59:07.417Z,100784.51
2019-05-05T23:01:36.082Z,100779.73
2019-05-05T23:04:19.548Z,100778.55
2019-05-05T23:06:51.498Z,100783.26
2019-05-05T23:09:20.102Z,100786.75
2019-05-05T23:11:48.793Z,100788.20
2019-05-05T23:14:29.793Z,100788.10
2019-05-05T23:17:08.687Z,100787.77
2019-05-05T23:19:44.486Z,100780.52
2019-05-05T23:22:24.059Z,100788.53
2019-05-05T23:24:57.936Z,100785.67
2019-05-05T23:27:46.845Z,100783.52
2019-05-05T23:30:16.126Z,100783.22
2019-05-05T23:32:45.031Z,100772.57
2019-05-05T23:35:14.316Z,100782.30
2019-05-05T23:37:44.849Z,100776.22
2019-05-05T23:40:20.673Z,100775.48
2019-05-05T23:42:49.401Z,100774.40
2019-05-05T23:45:18.460Z,100780.73
2019-05-05T23:47:47.321Z,100786.05
2019-05-05T23:50:16.128Z,100775.25
2019-05-05T23:52:44.838Z,100778.05
2019-05-05T23:55:14.325Z,100778.45
2019-05-05T23:57:43.727Z,100778.48
